Time;durP1;ratioP1;P1;durP2;ratioP2;P2;SDS_P1;SDS_P2;PMS_P1;PMS_P2;Temp;Humidity;BMP_temperature;BMP_pressure;BME280_temperature;BME280_humidity;BME280_pressure;Samples;Min_cycle;Max_cycle;Signal;HPM_P1;HPM_P2
2021/10/11 00:01:14;;;;;;;28.08;11.45;;;;;;;13.34;59.40;99339.13;5051044;28;20563;-52
2021/10/11 00:03:40;;;;;;;25.23;12.73;;;;;;;13.26;59.62;99330.53;5051023;28;20025;-52
2021/10/11 00:06:06;;;;;;;15.00;10.18;;;;;;;13.19;59.86;99334.00;5052349;28;20098;-52
2021/10/11 00:08:31;;;;;;;13.45;9.70;;;;;;;13.13;59.81;99340.06;5052353;28;20172;-52
2021/10/11 00:10:57;;;;;;;17.23;9.82;;;;;;;13.11;60.04;99342.09;5052279;28;20025;-52
2021/10/11 00:13:23;;;;;;;26.27;12.15;;;;;;;12.92;59.60;99346.31;5052237;28;20411;-52
2021/10/11 00:15:49;;;;;;;23.48;11.63;;;;;;;12.61;60.35;99354.72;5052198;28;20029;-53
2021/10/11 00:18:15;;;;;;;14.73;9.80;;;;;;;12.41;61.22;99370.44;5050840;28;20082;-52
2021/10/11 00:20:41;;;;;;;19.35;9.10;;;;;;;12.41;61.54;99361.72;5050797;28;20025;-52
2021/10/11 00:23:10;;;;;;;14.30;10.30;;;;;;;12.53;61.62;99366.22;5050724;28;20056;-52
2021/10/11 00:25:36;;;;;;;22.42;18.27;;;;;;;12.65;61.04;99363.03;5052059;28;20028;-52
2021/10/11 00:28:02;;;;;;;14.90;11.10;;;;;;;12.75;60.99;99360.84;5052029;28;20020;-52
2021/10/11 00:30:28;;;;;;;13.85;10.48;;;;;;;12.76;60.64;99367.75;5051742;28;20052;-52
2021/10/11 00:32:54;;;;;;;20.80;11.90;;;;;;;12.54;60.53;99364.44;5051992;28;20033;-52
2021/10/11 00:35:20;;;;;;;15.30;11.38;;;;;;;12.30;61.21;99377.06;5051874;28;20512;-52
2021/10/11 00:37:45;;;;;;;16.50;11.68;;;;;;;12.05;61.61;99376.69;5050515;28;20403;-52
2021/10/11 00:40:11;;;;;;;13.18;10.68;;;;;;;11.91;61.91;99381.09;5051828;28;20025;-51
2021/10/11 00:42:37;;;;;;;18.27;11.50;;;;;;;11.71;62.35;99380.91;5051720;28;20048;-52
2021/10/11 00:45:04;;;;;;;13.07;10.38;;;;;;;11.72;62.96;99382.50;5051697;28;20506;-51
2021/10/11 00:47:30;;;;;;;15.13;13.23;;;;;;;11.87;63.47;99379.81;5051822;28;20053;-52
2021/10/11 00:49:56;;;;;;;23.85;18.33;;;;;;;12.29;62.54;99382.50;5050460;28;20514;-52
2021/10/11 00:52:22;;;;;;;24.35;16.00;;;;;;;12.64;62.09;99380.69;5050314;28;20573;-52
2021/10/11 00:54:47;;;;;;;12.43;9.77;;;;;;;12.94;61.15;99375.09;5050387;28;20040;-52
2021/10/11 00:57:13;;;;;;;15.32;10.13;;;;;;;13.22;60.13;99376.78;5051630;28;20491;-52
2021/10/11 00:59:41;;;;;;;13.90;9.25;;;;;;;13.38;59.84;99385.16;5050265;28;20111;-52
2021/10/11 01:02:08;;;;;;;29.02;22.75;;;;;;;13.59;59.05;99375.44;5051516;28;20078;-52
2021/10/11 01:04:33;;;;;;;52.08;39.40;;;;;;;13.86;58.52;99380.69;5050187;28;20122;-52
2021/10/11 01:06:59;;;;;;;130.02;114.22;;;;;;;13.89;58.28;99375.81;5050862;28;20071;-52
2021/10/11 01:09:25;;;;;;;162.18;143.52;;;;;;;13.91;57.79;99383.53;5054352;28;20568;-52
2021/10/11 01:11:51;;;;;;;134.13;119.80;;;;;;;13.82;58.06;99387.38;5055644;28;20044;-52
2021/10/11 01:14:18;;;;;;;37.38;28.08;;;;;;;13.81;57.92;99380.50;5055628;28;20078;-52
2021/10/11 01:16:44;;;;;;;21.20;14.30;;;;;;;13.88;57.74;99381.28;5054246;28;20025;-52
2021/10/11 01:19:11;;;;;;;18.13;13.32;;;;;;;13.73;57.59;99381.50;5055507;28;20035;-52
2021/10/11 01:21:37;;;;;;;14.85;10.70;;;;;;;13.18;58.55;99387.72;5055474;28;20514;-52
2021/10/11 01:24:03;;;;;;;19.00;11.02;;;;;;;13.02;59.31;99384.63;5055308;28;20029;-52
2021/10/11 01:26:44;;;;;;;13.77;11.93;;;;;;;12.92;59.82;99388.47;5055382;28;20534;-52
2021/10/11 01:29:13;;;;;;;19.67;11.48;;;;;;;12.84;60.44;99382.56;5055289;28;20514;-52
2021/10/11 01:31:39;;;;;;;18.30;10.90;;;;;;;12.77;60.38;99395.69;5055040;28;20048;-52
2021/10/11 01:34:05;;;;;;;13.90;9.85;;;;;;;12.75;60.46;99403.00;5055241;28;20115;-52
2021/10/11 01:36:31;;;;;;;12.93;9.85;;;;;;;12.79;60.22;99404.22;5055176;28;20100;-51
2021/10/11 01:39:01;;;;;;;21.08;10.18;;;;;;;12.83;60.29;99408.09;5055160;28;20056;-52
2021/10/11 01:41:27;;;;;;;36.15;32.05;;;;;;;12.91;60.18;99389.47;5055057;28;20021;-52
2021/10/11 01:43:53;;;;;;;24.25;21.55;;;;;;;12.96;60.12;99388.91;5055030;28;20024;-51
2021/10/11 01:46:19;;;;;;;47.78;43.45;;;;;;;12.91;60.26;99394.75;5055000;28;20021;-52
2021/10/11 01:48:45;;;;;;;30.13;27.20;;;;;;;12.96;59.94;99391.53;5054955;28;20032;-52
2021/10/11 01:51:11;;;;;;;122.88;112.15;;;;;;;12.97;59.58;99393.13;5054943;28;20029;-52
2021/10/11 01:53:37;;;;;;;53.08;48.28;;;;;;;12.93;59.79;99382.19;5053571;28;20029;-52
2021/10/11 01:56:03;;;;;;;14.00;11.85;;;;;;;12.92;59.73;99388.47;5054779;28;20118;-51
2021/10/11 01:58:29;;;;;;;14.00;11.48;;;;;;;12.87;59.51;99392.69;5053488;28;20021;-52
2021/10/11 02:00:56;;;;;;;16.42;12.85;;;;;;;12.45;60.91;99397.19;5053445;28;20060;-51
2021/10/11 02:03:21;;;;;;;19.60;11.52;;;;;;;12.22;61.15;99398.28;5054590;28;20024;-52
2021/10/11 02:05:47;;;;;;;15.13;11.93;;;;;;;11.88;62.04;99401.66;5054671;28;20032;-52
2021/10/11 02:08:14;;;;;;;15.70;11.30;;;;;;;11.97;62.35;99406.63;5054666;28;20486;-51
2021/10/11 02:10:39;;;;;;;13.23;10.15;;;;;;;12.12;62.20;99401.25;5054531;28;20505;-52
2021/10/11 02:13:05;;;;;;;20.05;10.77;;;;;;;12.44;61.85;99398.19;5053207;28;20029;-51
2021/10/11 02:15:31;;;;;;;15.38;10.70;;;;;;;12.45;61.11;99402.44;5053194;28;20135;-51
2021/10/11 02:17:57;;;;;;;14.43;10.63;;;;;;;12.33;61.24;99395.09;5054224;28;20028;-51
2021/10/11 02:20:24;;;;;;;16.70;11.10;;;;;;;12.21;61.44;99387.94;5054425;28;20025;-51
2021/10/11 02:22:49;;;;;;;15.60;10.93;;;;;;;11.98;61.73;99389.00;5054270;28;20024;-51
2021/10/11 02:25:15;;;;;;;17.38;10.90;;;;;;;11.92;62.25;99389.78;5054237;28;20483;-52
2021/10/11 02:27:41;;;;;;;15.05;10.38;;;;;;;11.96;62.52;99388.38;5052910;28;20503;-51
2021/10/11 02:30:09;;;;;;;18.20;11.45;;;;;;;11.72;62.72;99387.78;5053916;28;20080;-52
2021/10/11 02:32:35;;;;;;;16.08;11.40;;;;;;;11.43;63.32;99391.38;5054214;28;20102;-51
2021/10/11 02:35:01;;;;;;;13.57;10.00;;;;;;;11.42;63.92;99387.13;5052729;28;20029;-51
2021/10/11 02:37:27;;;;;;;12.25;10.93;;;;;;;11.60;63.86;99392.72;5054090;28;20132;-51
2021/10/11 02:39:56;;;;;;;17.30;10.95;;;;;;;11.69;63.32;99382.91;5054015;28;20070;-51
2021/10/11 02:42:23;;;;;;;13.15;10.20;;;;;;;11.70;63.41;99395.03;5052689;28;20029;-52
2021/10/11 02:44:49;;;;;;;13.10;11.25;;;;;;;11.59;63.25;99390.31;5053873;28;20074;-52
2021/10/11 02:47:15;;;;;;;13.65;11.38;;;;;;;11.37;64.07;99386.88;5053849;28;20025;-51
2021/10/11 02:49:41;;;;;;;15.57;10.60;;;;;;;11.28;64.69;99386.16;5053864;28;20035;-51
2021/10/11 02:52:07;;;;;;;17.83;11.65;;;;;;;11.30;64.23;99389.41;5052444;28;20503;-51
2021/10/11 02:54:33;;;;;;;14.02;11.20;;;;;;;11.38;64.37;99381.41;5053762;28;20112;-52
2021/10/11 02:56:59;;;;;;;13.98;9.68;;;;;;;11.47;64.35;99383.91;5052361;28;20446;-52
2021/10/11 02:59:25;;;;;;;15.30;9.65;;;;;;;11.76;63.99;99378.50;5053659;28;20104;-51
2021/10/11 03:01:51;;;;;;;13.70;10.10;;;;;;;12.15;62.88;99376.34;5053674;28;20028;-52
2021/10/11 03:04:17;;;;;;;23.08;10.80;;;;;;;12.34;62.33;99385.38;5052162;28;20025;-52
2021/10/11 03:06:43;;;;;;;15.98;12.20;;;;;;;12.56;61.51;99384.28;5053443;28;20027;-52
2021/10/11 03:09:08;;;;;;;16.73;11.90;;;;;;;12.41;61.42;99378.31;5053456;28;20025;-52
2021/10/11 03:11:34;;;;;;;16.00;11.07;;;;;;;12.43;61.88;99388.66;5052092;28;20017;-52
2021/10/11 03:14:00;;;;;;;21.38;11.55;;;;;;;12.51;61.25;99386.66;5053363;28;20024;-52
2021/10/11 03:16:27;;;;;;;15.77;11.18;;;;;;;12.51;61.27;99381.41;5051979;28;20032;-52
2021/10/11 03:18:53;;;;;;;15.68;10.60;;;;;;;12.69;60.90;99382.72;5053315;28;20025;-52
2021/10/11 03:21:21;;;;;;;18.58;11.50;;;;;;;12.93;60.52;99373.47;5053265;28;20026;-52
2021/10/11 03:23:49;;;;;;;12.77;11.45;;;;;;;12.96;59.57;99384.44;5053084;28;20086;-52
2021/10/11 03:26:15;;;;;;;17.65;10.90;;;;;;;12.78;60.13;99376.28;5053148;28;20074;-52
2021/10/11 03:28:44;;;;;;;21.60;10.48;;;;;;;12.87;59.85;99371.63;5053153;28;20402;-52
2021/10/11 03:31:10;;;;;;;20.02;11.32;;;;;;;13.01;59.46;99377.75;5052124;28;20480;-52
2021/10/11 03:33:36;;;;;;;19.73;12.30;;;;;;;13.05;59.17;99371.88;5051652;28;20037;-52
2021/10/11 03:36:03;;;;;;;18.35;10.43;;;;;;;13.01;58.79;99380.38;5051612;28;20029;-52
2021/10/11 03:38:29;;;;;;;15.90;10.80;;;;;;;12.87;58.70;99372.44;5052958;28;20021;-52
2021/10/11 03:40:55;;;;;;;12.93;10.70;;;;;;;12.77;59.40;99387.81;5052817;28;20036;-52
2021/10/11 03:43:20;;;;;;;22.95;10.80;;;;;;;12.74;59.52;99383.75;5051415;28;20028;-52
2021/10/11 03:45:46;;;;;;;13.35;10.65;;;;;;;12.71;59.22;99370.97;5051498;28;20035;-52
2021/10/11 03:48:12;;;;;;;14.10;11.32;;;;;;;12.73;59.48;99386.56;5052764;28;20021;-52
2021/10/11 03:50:39;;;;;;;25.50;12.38;;;;;;;12.76;59.62;99373.03;5052725;28;20025;-52
2021/10/11 03:53:07;;;;;;;24.52;10.57;;;;;;;12.85;59.01;99371.00;5052650;28;20021;-52
2021/10/11 03:55:33;;;;;;;13.43;10.57;;;;;;;12.94;59.17;99377.75;5052628;28;20032;-52
2021/10/11 03:57:59;;;;;;;17.60;10.88;;;;;;;12.93;58.70;99374.28;5052526;28;20021;-52
2021/10/11 04:00:25;;;;;;;12.75;11.00;;;;;;;12.92;59.17;99372.66;5052546;28;20495;-52
2021/10/11 04:02:50;;;;;;;16.80;11.23;;;;;;;12.86;58.61;99372.63;5052419;28;20025;-52
2021/10/11 04:05:16;;;;;;;17.85;10.48;;;;;;;12.70;59.64;99366.72;5052421;28;20505;-52
2021/10/11 04:07:44;;;;;;;26.13;14.75;;;;;;;12.75;59.15;99372.19;5052322;28;20085;-52
2021/10/11 04:10:11;;;;;;;17.92;11.27;;;;;;;12.91;58.81;99373.66;5052281;28;20028;-52
2021/10/11 04:12:38;;;;;;;14.52;9.65;;;;;;;13.07;58.27;99379.59;5052297;28;20457;-52
2021/10/11 04:15:07;;;;;;;19.80;9.88;;;;;;;13.05;57.38;99384.25;5052170;28;20044;-52
2021/10/11 04:17:39;;;;;;;18.17;10.38;;;;;;;12.55;57.68;99390.53;5050925;28;20085;-52
2021/10/11 04:20:08;;;;;;;15.93;11.07;;;;;;;12.06;59.32;99391.50;5052422;28;20032;-51
2021/10/11 04:22:35;;;;;;;20.17;13.25;;;;;;;12.07;60.05;99389.66;5052135;28;20025;-52
2021/10/11 04:25:01;;;;;;;23.83;12.52;;;;;;;12.31;59.72;99391.03;5050716;28;20506;-52
2021/10/11 04:27:27;;;;;;;31.52;13.48;;;;;;;12.48;59.49;99397.63;5052031;28;20032;-52
2021/10/11 04:29:52;;;;;;;18.63;10.45;;;;;;;12.61;59.16;99396.03;5050465;28;20083;-54
2021/10/11 04:32:18;;;;;;;17.77;10.38;;;;;;;12.76;58.51;99404.63;5050706;28;20454;-52
2021/10/11 04:34:44;;;;;;;16.55;11.65;;;;;;;12.85;57.97;99390.25;5051953;28;20644;-52
2021/10/11 04:37:09;;;;;;;15.88;10.57;;;;;;;12.72;57.85;99403.41;5051893;28;20503;-51
2021/10/11 04:39:35;;;;;;;21.38;11.35;;;;;;;12.54;58.40;99401.28;5051842;28;20035;-52
2021/10/11 04:42:01;;;;;;;35.42;13.77;;;;;;;12.62;58.61;99405.59;5050905;28;20028;-52
2021/10/11 04:44:27;;;;;;;15.65;10.18;;;;;;;12.64;58.11;99408.84;5051729;28;20466;-52
2021/10/11 04:46:53;;;;;;;15.88;10.32;;;;;;;12.68;57.87;99412.69;5051733;28;20395;-52
2021/10/11 04:49:19;;;;;;;12.27;9.63;;;;;;;12.48;57.65;99404.72;5051793;28;20029;-51
2021/10/11 04:51:44;;;;;;;19.10;10.25;;;;;;;12.25;57.80;99412.84;5051741;28;20314;-52
2021/10/11 04:54:10;;;;;;;14.48;10.98;;;;;;;12.06;58.85;99420.44;5051677;28;20090;-52
2021/10/11 04:56:36;;;;;;;1999.90;999.90;;;;;;;11.94;59.70;99417.50;5051660;28;20086;-51
2021/10/11 04:59:02;;;;;;;677.92;396.88;;;;;;;12.04;59.29;99416.38;5051650;28;20025;-52
2021/10/11 05:01:27;;;;;;;168.30;79.93;;;;;;;12.03;58.62;99427.88;5051623;28;20494;-52
2021/10/11 05:03:53;;;;;;;83.22;42.40;;;;;;;12.00;58.94;99436.97;5051553;28;20025;-51
2021/10/11 05:06:19;;;;;;;88.90;39.58;;;;;;;11.93;58.67;99429.06;5050253;28;20507;-52
2021/10/11 05:08:44;;;;;;;46.08;26.77;;;;;;;11.84;58.66;99438.03;5051561;28;20029;-52
2021/10/11 05:11:11;;;;;;;89.80;38.58;;;;;;;11.76;59.24;99438.97;5050214;28;20017;-52
2021/10/11 05:13:36;;;;;;;67.32;29.58;;;;;;;11.77;58.97;99445.88;5051504;28;20028;-52
2021/10/11 05:16:03;;;;;;;43.85;21.70;;;;;;;11.75;59.29;99442.63;5051416;28;20028;-52
2021/10/11 05:18:31;;;;;;;22.38;13.80;;;;;;;11.71;59.24;99438.75;5051526;28;20395;-52
2021/10/11 05:20:58;;;;;;;30.35;17.25;;;;;;;11.50;59.52;99431.66;5050101;28;20025;-52
2021/10/11 05:23:24;;;;;;;35.95;19.10;;;;;;;11.17;60.43;99428.72;5051368;28;20112;-52
2021/10/11 05:25:50;;;;;;;45.83;16.40;;;;;;;11.17;60.68;99433.97;5051319;28;20021;-52
2021/10/11 05:28:16;;;;;;;27.70;14.98;;;;;;;11.26;60.53;99435.47;5051412;28;20028;-51
2021/10/11 05:30:42;;;;;;;27.33;13.88;;;;;;;11.29;60.56;99435.09;5049794;28;20128;-52
2021/10/11 05:33:09;;;;;;;18.08;12.68;;;;;;;11.36;60.64;99427.28;5051294;28;20133;-51
2021/10/11 05:35:37;;;;;;;18.58;12.80;;;;;;;11.35;60.48;99437.00;5051325;28;20068;-52
2021/10/11 05:38:04;;;;;;;20.85;11.40;;;;;;;11.35;60.14;99434.38;5051305;28;20017;-52
2021/10/11 05:40:31;;;;;;;20.50;11.68;;;;;;;11.27;60.41;99433.66;5051266;28;20116;-51
2021/10/11 05:42:57;;;;;;;21.73;11.18;;;;;;;11.32;60.62;99431.28;5051172;28;20131;-52
2021/10/11 05:45:24;;;;;;;24.52;11.73;;;;;;;11.37;60.40;99442.06;5051228;28;20104;-52
2021/10/11 05:47:49;;;;;;;19.92;11.68;;;;;;;11.42;60.02;99441.50;5051447;28;20051;-52
2021/10/11 05:50:15;;;;;;;16.98;11.13;;;;;;;11.47;59.89;99447.81;5049841;28;20064;-52
2021/10/11 05:52:41;;;;;;;15.80;11.20;;;;;;;11.49;59.92;99461.59;5049921;28;20055;-51
2021/10/11 05:55:08;;;;;;;20.33;10.18;;;;;;;11.42;59.61;99459.91;5054861;28;20025;-52
2021/10/11 05:57:35;;;;;;;14.48;11.32;;;;;;;11.43;59.91;99467.59;5054850;28;20018;-52
2021/10/11 06:00:02;;;;;;;17.20;11.10;;;;;;;11.46;60.11;99461.16;5054721;28;20025;-51
2021/10/11 06:02:28;;;;;;;15.93;11.70;;;;;;;11.51;60.01;99471.91;5054817;28;20049;-52
2021/10/11 06:04:54;;;;;;;18.17;11.73;;;;;;;11.49;60.06;99460.75;5053303;28;20087;-52
2021/10/11 06:07:20;;;;;;;19.70;11.85;;;;;;;11.35;60.12;99473.78;5053305;28;20550;-52
2021/10/11 06:09:46;;;;;;;15.35;10.80;;;;;;;11.11;60.64;99464.41;5054604;28;20094;-54
2021/10/11 06:12:12;;;;;;;12.40;11.13;;;;;;;11.02;61.06;99464.69;5054566;28;20020;-54
2021/10/11 06:14:37;;;;;;;13.32;11.05;;;;;;;10.99;61.04;99463.25;5053201;28;20478;-54
2021/10/11 06:17:03;;;;;;;15.40;11.10;;;;;;;11.08;60.98;99471.84;5054484;28;20036;-54
2021/10/11 06:19:29;;;;;;;16.13;11.38;;;;;;;11.15;60.74;99470.13;5054448;28;20021;-54
2021/10/11 06:21:55;;;;;;;19.73;11.95;;;;;;;11.22;60.58;99476.25;5054587;28;20064;-54
2021/10/11 06:24:21;;;;;;;15.75;10.77;;;;;;;11.29;60.43;99477.16;5054316;28;20040;-54
2021/10/11 06:26:47;;;;;;;14.70;11.98;;;;;;;11.34;60.11;99479.22;5052959;28;20075;-54
2021/10/11 06:29:13;;;;;;;20.58;11.95;;;;;;;11.36;59.94;99478.03;5054201;28;20025;-54
2021/10/11 06:31:39;;;;;;;24.20;12.52;;;;;;;11.35;59.94;99479.03;5052604;28;20041;-54
2021/10/11 06:34:05;;;;;;;34.38;12.20;;;;;;;11.31;59.87;99483.03;5054155;28;20017;-54
2021/10/11 06:36:34;;;;;;;13.10;11.70;;;;;;;11.18;60.12;99488.94;5054079;28;20122;-54
2021/10/11 06:39:04;;;;;;;26.35;12.02;;;;;;;11.12;60.64;99489.69;5054010;28;20032;-54
2021/10/11 06:41:29;;;;;;;22.08;12.90;;;;;;;11.14;61.07;99485.06;5052640;28;20037;-54
2021/10/11 06:43:55;;;;;;;17.13;11.80;;;;;;;11.15;61.15;99493.78;5052566;28;20025;-54
2021/10/11 06:46:21;;;;;;;17.05;11.23;;;;;;;11.20;61.01;99480.88;5053896;28;20104;-54
2021/10/11 06:48:47;;;;;;;56.83;39.10;;;;;;;11.27;60.92;99479.16;5053862;28;20025;-54
2021/10/11 06:51:13;;;;;;;136.63;92.55;;;;;;;11.37;60.74;99478.84;5053817;28;20090;-54
2021/10/11 06:53:38;;;;;;;35.22;23.60;;;;;;;11.50;60.12;99489.50;5053785;28;20021;-54
2021/10/11 06:56:05;;;;;;;136.48;67.68;;;;;;;11.45;59.52;99491.03;5052400;28;20063;-54
2021/10/11 06:58:30;;;;;;;70.95;41.10;;;;;;;11.20;60.26;99494.00;5052403;28;20036;-54
2021/10/11 07:00:56;;;;;;;45.75;19.70;;;;;;;11.22;60.54;99492.03;5053620;28;20025;-54
2021/10/11 07:03:25;;;;;;;19.83;12.40;;;;;;;11.33;60.36;99488.13;5053538;28;20053;-54
2021/10/11 07:06:26;;;;;;;22.15;12.50;;;;;;;11.43;60.07;99496.50;5052538;28;20028;-54
2021/10/11 07:08:45;;;;;;;27.25;12.88;;;;;;;11.32;59.95;99495.16;5052265;28;20242;-53
2021/10/11 07:11:11;;;;;;;20.15;11.73;;;;;;;11.31;60.34;99496.19;5053391;28;20033;-54
2021/10/11 07:13:37;;;;;;;17.58;10.93;;;;;;;11.46;59.83;99498.75;5053438;28;20021;-54
2021/10/11 07:16:03;;;;;;;20.48;11.82;;;;;;;11.62;59.33;99500.34;5052010;28;20025;-54
2021/10/11 07:18:30;;;;;;;18.95;11.75;;;;;;;11.74;58.97;99508.56;5051911;28;20033;-54
2021/10/11 07:20:56;;;;;;;17.08;10.68;;;;;;;11.86;58.57;99501.78;5051882;28;20039;-54
2021/10/11 07:23:22;;;;;;;20.73;11.23;;;;;;;11.82;58.32;99508.44;5053183;28;20013;-54
2021/10/11 07:25:47;;;;;;;22.73;13.05;;;;;;;11.79;58.45;99509.63;5053112;28;20132;-54
2021/10/11 07:28:13;;;;;;;19.10;11.30;;;;;;;11.82;58.17;99511.06;5053163;28;20021;-54
2021/10/11 07:30:39;;;;;;;32.03;14.07;;;;;;;11.68;58.58;99517.19;5050797;28;20127;-54
2021/10/11 07:33:07;;;;;;;18.17;11.45;;;;;;;11.62;58.56;99525.81;5053021;28;20051;-54
2021/10/11 07:35:34;;;;;;;11.80;10.02;;;;;;;11.75;58.64;99518.06;5052996;28;20426;-54
2021/10/11 07:38:01;;;;;;;17.42;11.00;;;;;;;11.82;58.50;99531.28;5052939;28;20070;-54
2021/10/11 07:40:27;;;;;;;19.00;10.48;;;;;;;11.87;58.40;99537.63;5051553;28;20025;-54
2021/10/11 07:42:53;;;;;;;17.38;11.15;;;;;;;11.82;58.63;99534.72;5052794;28;20460;-54
2021/10/11 07:45:19;;;;;;;19.25;11.10;;;;;;;11.77;58.46;99540.56;5052827;28;20100;-54
2021/10/11 07:47:45;;;;;;;22.35;11.82;;;;;;;11.65;58.62;99539.41;5051469;28;20025;-54
2021/10/11 07:50:11;;;;;;;19.55;11.65;;;;;;;11.66;59.28;99548.91;5052645;28;20024;-54
2021/10/11 07:52:37;;;;;;;15.40;10.52;;;;;;;11.87;58.76;99540.25;5051367;28;20056;-54
2021/10/11 07:55:04;;;;;;;17.08;10.48;;;;;;;12.14;57.76;99540.53;5051301;28;20533;-53
2021/10/11 07:57:33;;;;;;;20.70;10.10;;;;;;;12.27;57.68;99545.88;5052620;28;20025;-54
2021/10/11 08:00:08;;;;;;;17.75;9.85;;;;;;;12.51;57.02;99544.66;5051216;28;20483;-54
2021/10/11 08:02:34;;;;;;;20.02;12.07;;;;;;;12.74;56.77;99541.78;5052543;28;20025;-54
2021/10/11 08:04:59;;;;;;;22.58;10.40;;;;;;;12.88;55.98;99540.03;5051044;28;20094;-54
2021/10/11 08:07:25;;;;;;;22.85;12.95;;;;;;;12.87;55.38;99540.22;5052445;28;20036;-52
2021/10/11 08:09:51;;;;;;;25.55;10.18;;;;;;;12.87;55.30;99534.97;5051068;28;20033;-52
2021/10/11 08:12:17;;;;;;;17.50;11.30;;;;;;;12.73;55.26;99544.59;5051007;28;20028;-52
2021/10/11 08:14:44;;;;;;;34.42;13.13;;;;;;;12.48;55.94;99541.59;5050981;28;20036;-52
2021/10/11 08:17:11;;;;;;;39.88;10.95;;;;;;;12.63;56.01;99538.88;5051988;28;20059;-52
2021/10/11 08:19:37;;;;;;;18.15;9.57;;;;;;;12.97;54.59;99554.66;5051020;28;20025;-52
2021/10/11 08:22:04;;;;;;;19.48;9.73;;;;;;;13.00;54.77;99550.84;5050836;28;20064;-52
2021/10/11 08:24:30;;;;;;;34.90;12.73;;;;;;;13.22;53.94;99543.66;5052028;28;20021;-52
2021/10/11 08:26:56;;;;;;;18.55;10.15;;;;;;;13.36;53.12;99557.72;5052097;28;20064;-52
2021/10/11 08:29:22;;;;;;;26.50;10.35;;;;;;;13.31;53.16;99560.94;5050811;28;20072;-52
2021/10/11 08:31:48;;;;;;;14.40;9.10;;;;;;;13.35;52.68;99556.09;5050433;28;20037;-52
2021/10/11 08:34:13;;;;;;;11.82;8.30;;;;;;;13.52;52.19;99557.41;5050631;28;20040;-52
2021/10/11 08:36:39;;;;;;;12.45;8.82;;;;;;;13.61;51.82;99555.38;5050671;28;20116;-52
2021/10/11 08:39:05;;;;;;;16.55;9.65;;;;;;;13.58;51.48;99561.03;5051968;28;20048;-52
2021/10/11 08:41:31;;;;;;;16.08;8.68;;;;;;;13.87;50.94;99556.47;5050637;28;20567;-52
2021/10/11 08:43:57;;;;;;;15.52;8.80;;;;;;;15.23;49.99;99553.34;5051839;28;20059;-52
2021/10/11 08:46:24;;;;;;;29.75;8.30;;;;;;;17.27;46.06;99546.94;5051866;28;20068;-52
2021/10/11 08:48:50;;;;;;;13.43;8.10;;;;;;;18.55;42.62;99539.53;5051760;28;20017;-52
2021/10/11 08:51:17;;;;;;;16.05;8.65;;;;;;;19.66;40.09;99533.28;5050484;28;20040;-52
2021/10/11 08:53:42;;;;;;;11.85;7.82;;;;;;;20.02;38.47;99534.75;5051732;28;20025;-52
2021/10/11 08:56:12;;;;;;;12.88;8.10;;;;;;;20.18;38.36;99540.31;5051686;28;20166;-52
2021/10/11 08:58:50;;;;;;;13.20;8.38;;;;;;;20.65;37.73;99534.66;5051696;28;20025;-49
2021/10/11 09:01:23;;;;;;;20.33;9.13;;;;;;;21.71;36.65;99528.19;5051664;28;20025;-49
2021/10/11 09:03:49;;;;;;;10.73;8.98;;;;;;;22.26;34.28;99528.97;5051542;28;20021;-50
2021/10/11 09:06:16;;;;;;;9.75;8.00;;;;;;;22.31;33.32;99534.31;5051606;28;20399;-50
2021/10/11 09:08:42;;;;;;;9.70;8.20;;;;;;;22.08;33.86;99540.81;5051608;28;20028;-50
2021/10/11 09:11:12;;;;;;;14.25;8.77;;;;;;;21.64;34.25;99544.41;5051481;28;20029;-49
2021/10/11 09:13:51;;;;;;;20.70;8.82;;;;;;;20.60;35.53;99553.25;5050293;28;20028;-49
2021/10/11 09:16:30;;;;;;;13.18;7.90;;;;;;;19.95;36.12;99552.75;5051796;28;20044;-50
2021/10/11 09:19:07;;;;;;;12.05;8.48;;;;;;;19.06;37.68;99556.63;5051335;28;20036;-49
2021/10/11 09:21:35;;;;;;;13.65;8.27;;;;;;;18.98;38.41;99566.84;5051513;28;20033;-49
2021/10/11 09:24:27;;;;;;;16.77;8.60;;;;;;;19.22;38.18;99557.75;5051361;28;20521;-49
2021/10/11 09:26:55;;;;;;;36.28;10.18;;;;;;;19.11;38.84;99555.94;5050189;28;20033;-49
2021/10/11 09:29:35;;;;;;;13.68;8.88;;;;;;;18.94;38.77;99556.66;5052961;28;20398;-50
2021/10/11 09:32:07;;;;;;;20.48;9.88;;;;;;;18.71;39.04;99556.63;5053801;28;20076;-49
2021/10/11 09:34:36;;;;;;;12.02;9.27;;;;;;;18.33;39.27;99557.88;5054049;28;20028;-50
2021/10/11 09:37:07;;;;;;;21.58;10.85;;;;;;;18.17;39.72;99557.53;5055168;28;20046;-50
2021/10/11 09:39:36;;;;;;;17.58;8.77;;;;;;;18.26;39.70;99557.22;5053950;28;20029;-49
2021/10/11 09:42:04;;;;;;;18.25;9.05;;;;;;;18.12;40.07;99568.03;5053838;28;20021;-50
2021/10/11 09:44:30;;;;;;;17.98;9.10;;;;;;;17.76;40.17;99563.63;5053742;28;20031;-50
2021/10/11 09:47:07;;;;;;;13.40;9.27;;;;;;;17.42;41.26;99570.41;5055017;28;20580;-50
2021/10/11 09:49:34;;;;;;;13.90;9.02;;;;;;;18.27;39.96;99556.97;5053782;28;20033;-50
2021/10/11 09:52:00;;;;;;;13.75;9.20;;;;;;;18.97;39.63;99547.38;5053662;28;20059;-50
2021/10/11 09:54:26;;;;;;;13.82;9.20;;;;;;;19.83;38.06;99550.13;5054998;28;20056;-50
2021/10/11 09:56:52;;;;;;;34.17;9.70;;;;;;;19.84;37.65;99546.44;5053539;28;20035;-50
2021/10/11 09:59:18;;;;;;;15.07;8.48;;;;;;;19.51;38.04;99547.94;5053542;28;20033;-50
2021/10/11 10:01:46;;;;;;;16.05;8.70;;;;;;;19.13;38.48;99546.66;5054822;28;20031;-49
2021/10/11 10:04:17;;;;;;;14.70;9.05;;;;;;;19.14;38.75;99558.13;5054720;28;20021;-50
2021/10/11 10:06:47;;;;;;;20.50;8.65;;;;;;;19.90;37.76;99553.47;5054813;28;20025;-49
2021/10/11 10:09:16;;;;;;;14.85;8.85;;;;;;;20.19;37.28;99555.28;5054818;28;20032;-50
2021/10/11 10:11:43;;;;;;;11.55;8.10;;;;;;;20.68;36.10;99553.63;5053306;28;20021;-50
2021/10/11 10:14:21;;;;;;;19.20;8.60;;;;;;;20.81;35.81;99549.84;5053315;28;20106;-50
2021/10/11 10:16:54;;;;;;;10.40;8.60;;;;;;;20.54;35.55;99553.16;5054482;28;20033;-50
2021/10/11 10:19:35;;;;;;;17.35;9.32;;;;;;;19.82;36.50;99559.19;5054504;28;20036;-50
2021/10/11 10:22:15;;;;;;;17.25;9.13;;;;;;;19.53;37.17;99559.16;5054412;28;20032;-50
2021/10/11 10:24:42;;;;;;;14.55;8.73;;;;;;;19.99;36.43;99561.06;5054319;28;20025;-50
2021/10/11 10:27:10;;;;;;;10.85;8.40;;;;;;;20.92;35.80;99550.75;5054330;28;20021;-49
2021/10/11 10:29:48;;;;;;;12.02;7.97;;;;;;;22.24;33.66;99547.13;5053000;28;20037;-50
2021/10/11 10:32:17;;;;;;;17.02;10.02;;;;;;;23.10;31.79;99546.84;5054016;28;20106;-50
2021/10/11 10:34:58;;;;;;;10.15;7.55;;;;;;;24.10;30.80;99535.00;5054214;28;20395;-50
2021/10/11 10:37:35;;;;;;;11.25;7.88;;;;;;;25.12;29.17;99533.19;5054243;28;20033;-50
2021/10/11 10:40:11;;;;;;;11.48;7.80;;;;;;;26.18;27.46;99546.28;5052740;28;20049;-49
2021/10/11 10:42:37;;;;;;;12.55;8.13;;;;;;;26.22;26.58;99536.56;5054030;28;20109;-49
2021/10/11 10:45:13;;;;;;;11.90;8.15;;;;;;;25.90;27.16;99535.19;5053903;28;20462;-49
2021/10/11 10:47:41;;;;;;;14.00;7.90;;;;;;;25.80;27.35;99531.75;5052718;28;20033;-49
2021/10/11 10:50:33;;;;;;;12.13;8.15;;;;;;;25.39;27.81;99532.00;5053803;28;20017;-50
2021/10/11 10:53:01;;;;;;;17.98;7.72;;;;;;;24.96;27.45;99534.34;5052591;28;20051;-50
2021/10/11 10:55:27;;;;;;;11.85;7.05;;;;;;;25.26;27.35;99534.22;5053786;28;20035;-49
2021/10/11 10:58:04;;;;;;;11.05;7.90;;;;;;;25.40;27.42;99526.34;5053708;28;20096;-50
2021/10/11 11:00:30;;;;;;;10.35;7.47;;;;;;;25.61;26.67;99518.97;5052423;28;20454;-50
2021/10/11 11:02:56;;;;;;;9.20;7.45;;;;;;;25.32;27.41;99521.56;5052245;28;20037;-49
2021/10/11 11:05:26;;;;;;;9.43;7.50;;;;;;;25.33;27.25;99527.75;5053592;28;20376;-49
2021/10/11 11:07:53;;;;;;;16.85;9.70;;;;;;;25.54;27.20;99517.69;5053514;28;20017;-50
2021/10/11 11:10:22;;;;;;;12.60;7.45;;;;;;;25.93;26.33;99528.44;5052144;28;20032;-50
2021/10/11 11:12:57;;;;;;;12.57;7.50;;;;;;;26.02;26.50;99531.34;5053385;28;20025;-50
2021/10/11 11:15:32;;;;;;;14.52;7.45;;;;;;;25.43;26.53;99527.69;5053464;28;20411;-50
2021/10/11 11:18:19;;;;;;;97.90;12.93;;;;;;;25.04;27.81;99512.28;5053388;28;20032;-50
2021/10/11 11:20:47;;;;;;;23.35;9.13;;;;;;;24.92;27.64;99508.03;5053229;28;20365;-49